Crane, Oregon
Current Conditions -  °F | °C
As of 12:53 AM on Monday 22 Dec 2014 (Local Time) from KBNO Reporting Station
Overcast Overcast  
Wind Chill:   Ceiling: 2200
Heat Index:   Visibility: 10mi
Dew Point:   Wind: 5mph
Humidity: 86%   Direction: 260°W
Pressure: 30.09"   Gusts: NA
Location:  43.41°N, 118.58°W
Report Text: KBNO 220853Z AUTO 26004KT 10SM BKN022 BKN031 OVC110 04/02 A3009 RMK AO2 SLP191 60000 T00390017 58007
Loading
Personal Weather Stations






























Interactive Weather Map New forecast layout! Learn more

10-Day Weather Forecast

Advertisements
Track Severe Weather on mobile